createdAt,value
2022-08-19T00:01:55.309Z,99939.81
2022-08-19T00:04:26.560Z,99946.47
2022-08-19T00:06:57.048Z,99940.97
2022-08-19T00:09:26.830Z,99951.97
2022-08-19T00:11:56.376Z,99947.25
2022-08-19T00:14:25.617Z,99950.75
2022-08-19T00:16:55.572Z,99945.22
2022-08-19T00:19:25.513Z,99948.00
2022-08-19T00:21:57.342Z,99939.34
2022-08-19T00:24:26.031Z,99950.28
2022-08-19T00:26:56.173Z,99945.59
2022-08-19T00:29:26.540Z,99943.25
2022-08-19T00:31:57.192Z,99943.66
2022-08-19T00:34:28.943Z,99939.75
2022-08-19T00:36:58.982Z,99932.06
2022-08-19T00:39:27.833Z,99937.94
2022-08-19T00:41:56.057Z,99939.44
2022-08-19T00:44:27.380Z,99937.47
2022-08-19T00:46:58.167Z,99944.88
2022-08-19T00:49:32.033Z,99942.16
2022-08-19T00:52:04.103Z,99948.44
2022-08-19T00:54:34.129Z,99943.06
2022-08-19T00:57:04.088Z,99949.72
2022-08-19T01:00:01.923Z,99942.31
2022-08-19T01:02:20.911Z,99950.16
2022-08-19T01:04:49.291Z,99945.13
2022-08-19T01:07:19.915Z,99945.94
2022-08-19T01:09:48.429Z,99941.28
2022-08-19T01:12:18.223Z,99952.63
2022-08-19T01:14:47.663Z,99936.63
2022-08-19T01:17:17.248Z,99944.94
2022-08-19T01:19:47.768Z,99938.63
2022-08-19T01:22:30.151Z,99940.97
2022-08-19T01:25:03.530Z,99945.19
2022-08-19T01:27:43.695Z,99935.78
2022-08-19T01:30:16.105Z,99941.31
2022-08-19T01:32:44.576Z,99933.88
2022-08-19T01:35:14.277Z,99933.53
2022-08-19T01:37:51.085Z,99928.81
2022-08-19T01:40:23.291Z,99928.09
2022-08-19T01:42:52.285Z,99936.31
2022-08-19T01:45:21.674Z,99923.00
2022-08-19T01:47:52.665Z,99925.69
2022-08-19T01:50:32.496Z,99931.91
2022-08-19T01:53:05.893Z,99931.91
2022-08-19T01:55:41.087Z,99939.34
2022-08-19T01:58:12.759Z,99932.00
2022-08-19T02:00:41.380Z,99930.06
2022-08-19T02:03:10.400Z,99937.47
2022-08-19T02:05:38.766Z,99931.28
2022-08-19T02:08:07.183Z,99927.75
2022-08-19T02:10:41.725Z,99924.25
2022-08-19T02:13:09.979Z,99925.00
2022-08-19T02:15:38.972Z,99923.75
2022-08-19T02:18:08.426Z,99919.03
2022-08-19T02:20:36.950Z,99921.75
2022-08-19T02:23:05.199Z,99928.75
2022-08-19T02:25:45.447Z,99918.19
2022-08-19T02:28:18.327Z,99923.72
2022-08-19T02:30:46.980Z,99919.41
2022-08-19T02:33:15.184Z,99926.41
2022-08-19T02:35:44.807Z,99923.34
2022-08-19T02:38:28.150Z,99924.16
2022-08-19T02:40:59.897Z,99916.41
2022-08-19T02:43:33.863Z,99917.13
2022-08-19T02:46:04.114Z,99917.28
2022-08-19T02:48:34.066Z,99925.09
2022-08-19T02:51:02.496Z,99927.50
2022-08-19T02:53:31.943Z,99921.66
2022-08-19T02:56:01.705Z,99923.63
2022-08-19T02:58:29.873Z,99921.34
2022-08-19T03:00:59.568Z,99922.13
2022-08-19T03:03:28.439Z,99920.59
2022-08-19T03:06:10.117Z,99921.03
2022-08-19T03:08:39.671Z,99919.81
2022-08-19T03:11:15.440Z,99927.19
2022-08-19T03:13:44.373Z,99920.56
2022-08-19T03:16:13.978Z,99927.31
2022-08-19T03:18:42.153Z,99935.91
2022-08-19T03:21:12.344Z,99930.03
2022-08-19T03:23:41.209Z,99929.25
2022-08-19T03:26:16.553Z,99931.53
2022-08-19T03:28:51.816Z,99940.06
2022-08-19T03:31:45.710Z,99939.97
2022-08-19T03:34:20.451Z,99949.72
2022-08-19T03:36:49.815Z,99948.88
2022-08-19T03:39:18.745Z,99947.16
2022-08-19T03:42:38.559Z,99950.34
2022-08-19T03:44:39.833Z,99963.28
2022-08-19T03:47:08.578Z,99968.28
2022-08-19T03:49:37.679Z,99970.19
2022-08-19T03:52:08.584Z,99970.78
2022-08-19T03:54:39.106Z,99967.88
2022-08-19T03:57:10.089Z,99972.47
2022-08-19T03:59:39.778Z,99974.97
2022-08-19T04:02:10.928Z,99976.88
2022-08-19T04:04:39.768Z,99976.00
2022-08-19T04:07:09.393Z,99981.63
2022-08-19T04:09:38.634Z,99977.59
2022-08-19T04:12:09.203Z,99981.00
2022-08-19T04:14:37.394Z,99977.59
2022-08-19T04:17:06.878Z,99982.59
2022-08-19T04:19:37.542Z,99975.41
2022-08-19T04:22:06.400Z,99986.78
2022-08-19T04:24:35.707Z,99987.16
2022-08-19T04:27:06.593Z,99997.25
2022-08-19T04:29:36.589Z,99986.25
2022-08-19T04:32:08.724Z,99997.66
2022-08-19T04:35:02.343Z,99999.34
2022-08-19T04:37:34.675Z,99991.78
2022-08-19T04:40:22.341Z,99987.41
2022-08-19T04:42:50.551Z,99991.13
2022-08-19T04:45:22.886Z,99984.47
2022-08-19T04:47:58.439Z,99992.59
2022-08-19T04:50:44.013Z,99990.38
2022-08-19T04:53:13.007Z,99995.13
2022-08-19T04:55:42.938Z,99996.47
2022-08-19T04:58:11.113Z,100002.41
2022-08-19T05:00:42.213Z,100002.91
2022-08-19T05:03:10.610Z,100002.09
2022-08-19T05:05:45.285Z,100001.34
2022-08-19T05:08:15.183Z,99998.91
2022-08-19T05:10:43.918Z,99997.00
2022-08-19T05:13:12.049Z,100002.69
2022-08-19T05:15:41.551Z,100002.50
2022-08-19T05:18:28.470Z,100001.94
2022-08-19T05:21:14.015Z,99997.47
2022-08-19T05:23:42.189Z,100008.59
2022-08-19T05:26:12.073Z,100005.34
2022-08-19T05:28:40.361Z,99991.34
2022-08-19T05:31:10.191Z,100000.09
2022-08-19T05:33:38.614Z,99994.81
2022-08-19T05:36:08.331Z,99985.53
2022-08-19T05:38:37.051Z,99993.56
2022-08-19T05:41:09.590Z,99995.75
2022-08-19T05:43:38.227Z,99989.84
2022-08-19T05:46:07.103Z,99988.75
2022-08-19T05:48:37.717Z,99987.06
2022-08-19T05:51:07.424Z,99988.59
2022-08-19T05:53:35.769Z,99979.84
2022-08-19T05:56:06.740Z,99977.53
2022-08-19T05:58:35.074Z,99985.31
2022-08-19T06:01:06.363Z,99976.41
2022-08-19T06:03:38.436Z,99984.59
2022-08-19T06:06:08.392Z,99976.75
2022-08-19T06:08:37.329Z,99976.75
2022-08-19T06:11:17.281Z,99972.38
2022-08-19T06:13:52.151Z,99978.00
2022-08-19T06:16:28.974Z,99971.00
2022-08-19T06:18:59.519Z,99972.03
2022-08-19T06:21:29.424Z,99976.19
2022-08-19T06:23:59.393Z,99969.81
2022-08-19T06:26:27.789Z,99969.06
2022-08-19T06:28:56.250Z,99971.09
2022-08-19T06:31:27.923Z,99976.91
2022-08-19T06:33:56.070Z,99978.09
2022-08-19T06:36:32.826Z,99978.00
2022-08-19T06:39:02.174Z,99971.91
2022-08-19T06:41:31.248Z,99969.66
2022-08-19T06:44:00.008Z,99978.56
2022-08-19T06:46:28.663Z,99980.75
2022-08-19T06:48:57.062Z,99980.88
2022-08-19T06:54:00.260Z,99979.34
2022-08-19T06:56:34.812Z,99989.13
2022-08-19T06:59:04.281Z,99984.25
2022-08-19T07:01:32.681Z,99992.69
2022-08-19T07:04:02.585Z,99984.66
2022-08-19T07:06:44.046Z,99982.81
2022-08-19T07:09:18.617Z,99982.03
2022-08-19T07:11:48.489Z,99978.47
2022-08-19T07:14:19.804Z,99987.28
2022-08-19T07:16:50.112Z,99980.59
2022-08-19T07:19:20.166Z,99968.53
2022-08-19T07:21:53.866Z,99967.38
2022-08-19T07:24:25.562Z,99977.94
2022-08-19T07:26:55.350Z,99980.22
2022-08-19T07:29:25.629Z,99971.97
2022-08-19T07:32:00.041Z,99972.72
2022-08-19T07:34:30.991Z,99976.66
2022-08-19T07:37:00.638Z,99976.25
2022-08-19T07:39:32.832Z,99968.94
2022-08-19T07:42:03.217Z,99976.41
2022-08-19T07:44:31.446Z,99985.66
2022-08-19T07:47:01.143Z,99981.19
2022-08-19T07:49:30.484Z,99972.34
2022-08-19T07:52:03.323Z,99983.06
2022-08-19T07:54:35.456Z,99989.69
2022-08-19T07:57:03.903Z,99980.06
2022-08-19T07:59:32.326Z,99982.00
2022-08-19T08:02:01.877Z,99977.53
2022-08-19T08:04:48.660Z,99977.53
2022-08-19T08:07:35.482Z,99963.06
2022-08-19T08:10:05.841Z,99957.38
2022-08-19T08:13:08.547Z,99963.28
2022-08-19T08:15:42.762Z,99966.72
2022-08-19T08:18:12.259Z,99960.13
2022-08-19T08:20:41.121Z,99972.88
2022-08-19T08:23:26.600Z,99961.09
2022-08-19T08:25:57.875Z,99969.03
2022-08-19T08:28:30.070Z,99961.78
2022-08-19T08:31:00.036Z,99962.25
2022-08-19T08:33:33.793Z,99964.56
2022-08-19T08:36:04.169Z,99956.19
2022-08-19T08:38:39.639Z,99951.47
2022-08-19T08:41:20.478Z,99947.25
2022-08-19T08:43:52.099Z,99948.25
2022-08-19T08:46:31.269Z,99943.09
2022-08-19T08:49:09.965Z,99941.00
2022-08-19T08:54:26.709Z,99954.94
2022-08-19T08:56:56.339Z,99951.03
2022-08-19T08:59:33.340Z,99947.06
2022-08-19T09:02:02.182Z,99950.78
2022-08-19T09:04:30.911Z,99959.25
2022-08-19T09:07:35.257Z,99958.50
2022-08-19T09:10:12.840Z,99949.63
2022-08-19T09:12:51.941Z,99954.66
2022-08-19T09:15:33.279Z,99947.94
2022-08-19T09:18:04.782Z,99963.16
2022-08-19T09:20:35.719Z,99947.88
2022-08-19T09:23:05.186Z,99970.69
2022-08-19T09:25:35.544Z,99959.00
2022-08-19T09:28:05.943Z,99963.00
2022-08-19T09:30:48.449Z,99972.16
2022-08-19T09:33:17.234Z,99957.63
2022-08-19T09:36:08.633Z,99965.06
2022-08-19T09:38:37.834Z,99964.09
2022-08-19T09:41:15.705Z,99963.22
2022-08-19T09:43:47.931Z,99964.22
2022-08-19T09:46:18.394Z,99964.56
2022-08-19T09:48:49.442Z,99967.22
2022-08-19T09:51:21.465Z,99960.00
2022-08-19T09:53:52.912Z,99963.84
2022-08-19T09:56:24.622Z,99966.78
2022-08-19T09:58:52.933Z,99976.16
2022-08-19T10:01:24.371Z,99960.66
2022-08-19T10:03:57.092Z,99955.38
2022-08-19T10:06:46.282Z,99968.31
2022-08-19T10:09:16.934Z,99967.09
2022-08-19T10:11:55.996Z,99970.38
2022-08-19T10:14:24.784Z,99966.06
2022-08-19T10:16:53.300Z,99974.75
2022-08-19T10:19:25.967Z,99971.09
2022-08-19T10:22:00.250Z,99965.41
2022-08-19T10:24:29.368Z,99962.91
2022-08-19T10:27:00.103Z,99969.09
2022-08-19T10:29:32.506Z,99961.38
2022-08-19T10:32:02.868Z,99973.53
2022-08-19T10:34:32.687Z,99973.72
2022-08-19T10:37:02.485Z,99956.03
2022-08-19T10:39:32.687Z,99974.91
2022-08-19T10:42:14.410Z,99972.47
2022-08-19T10:44:43.588Z,99989.22
2022-08-19T10:47:17.677Z,99984.00
2022-08-19T10:50:12.017Z,99984.91
2022-08-19T10:52:49.680Z,99985.22
2022-08-19T10:55:37.925Z,99995.81
2022-08-19T10:58:13.376Z,100002.69
2022-08-19T11:00:43.253Z,99994.59
2022-08-19T11:03:11.966Z,99996.34
2022-08-19T11:05:41.678Z,99994.91
2022-08-19T11:08:22.882Z,100002.97
2022-08-19T11:10:54.745Z,100004.69
2022-08-19T11:13:25.709Z,100007.38
2022-08-19T11:16:07.144Z,100018.41
2022-08-19T11:18:39.711Z,100015.56
2022-08-19T11:21:09.881Z,100012.31
2022-08-19T11:23:38.054Z,100007.28
2022-08-19T11:26:06.517Z,100011.19
2022-08-19T11:28:36.117Z,100017.44
2022-08-19T11:31:04.976Z,100007.03
2022-08-19T11:33:33.792Z,100011.25
2022-08-19T11:36:02.609Z,100007.88
2022-08-19T11:38:31.451Z,100011.84
2022-08-19T11:41:01.407Z,100009.16
2022-08-19T11:43:34.364Z,100011.00
2022-08-19T11:46:08.960Z,100000.69
2022-08-19T11:48:38.024Z,99999.84
2022-08-19T11:51:08.648Z,100001.41
2022-08-19T11:53:37.879Z,100009.09
2022-08-19T11:56:08.044Z,100004.78
2022-08-19T11:58:36.361Z,99992.09
2022-08-19T12:01:12.775Z,99998.47
2022-08-19T12:03:41.750Z,99996.66
2022-08-19T12:06:13.695Z,99998.53
2022-08-19T12:08:42.447Z,99999.53
2022-08-19T12:11:11.266Z,99990.19
2022-08-19T12:13:40.352Z,99987.56
2022-08-19T12:16:13.739Z,99994.00
2022-08-19T12:18:44.716Z,99996.41
2022-08-19T12:21:14.784Z,100002.59
2022-08-19T12:23:46.150Z,100001.84
2022-08-19T12:26:14.295Z,99994.34
2022-08-19T12:28:43.098Z,99995.91
2022-08-19T12:31:13.637Z,99998.00
2022-08-19T12:33:42.839Z,99994.78
2022-08-19T12:36:13.414Z,100003.22
2022-08-19T12:38:42.658Z,100002.41
2022-08-19T12:41:14.111Z,99994.72
2022-08-19T12:43:42.926Z,100000.50
2022-08-19T12:46:13.363Z,99996.53
2022-08-19T12:48:46.005Z,99993.47
2022-08-19T12:51:16.594Z,99995.78
2022-08-19T12:53:45.153Z,99997.75
2022-08-19T12:56:15.869Z,99999.84
2022-08-19T12:58:48.652Z,99999.31
2022-08-19T13:01:22.860Z,99999.44
2022-08-19T13:03:53.611Z,100010.47
2022-08-19T13:06:22.447Z,100001.75
2022-08-19T13:08:50.664Z,99993.94
2022-08-19T13:11:21.258Z,99999.88
2022-08-19T13:13:55.842Z,100002.88
2022-08-19T13:16:25.433Z,100003.44
2022-08-19T13:18:54.008Z,99999.88
2022-08-19T13:21:23.994Z,100005.28
2022-08-19T13:23:53.149Z,100007.28
2022-08-19T13:26:21.551Z,100002.75
2022-08-19T13:29:07.289Z,100005.19
2022-08-19T13:31:55.624Z,100002.19
2022-08-19T13:34:30.945Z,100003.31
2022-08-19T13:36:59.705Z,100000.44
2022-08-19T13:39:28.513Z,100001.66
2022-08-19T13:41:56.725Z,99996.69
2022-08-19T13:44:24.834Z,100007.63
2022-08-19T13:46:54.547Z,100007.41
2022-08-19T13:49:24.241Z,100008.47
2022-08-19T13:51:52.568Z,100004.22
2022-08-19T13:54:20.797Z,100000.13
2022-08-19T13:56:49.073Z,100006.31
2022-08-19T13:59:17.598Z,100000.44
2022-08-19T14:01:46.264Z,100002.09
2022-08-19T14:04:15.843Z,100009.47
2022-08-19T14:06:43.946Z,100009.25
2022-08-19T14:09:12.094Z,100006.13
2022-08-19T14:11:40.382Z,100002.81
2022-08-19T14:14:12.265Z,100004.94
2022-08-19T14:16:44.076Z,100001.72
2022-08-19T14:19:12.213Z,99998.16
2022-08-19T14:21:42.152Z,99996.84
2022-08-19T14:24:10.566Z,99998.53
2022-08-19T14:26:41.861Z,99994.97
2022-08-19T14:29:10.407Z,100006.22
2022-08-19T14:31:41.056Z,99998.84
2022-08-19T14:34:10.681Z,99993.41
2022-08-19T14:36:39.473Z,99989.78
2022-08-19T14:39:09.507Z,99994.66
2022-08-19T14:41:38.194Z,99991.28
2022-08-19T14:44:06.458Z,99996.41
2022-08-19T14:46:34.691Z,99997.59
2022-08-19T14:49:09.363Z,100001.91
2022-08-19T14:51:37.841Z,99997.31
2022-08-19T14:54:06.533Z,100000.03
2022-08-19T14:56:36.174Z,100000.03
2022-08-19T14:59:04.400Z,100003.13
2022-08-19T15:01:32.649Z,100001.38
2022-08-19T15:04:00.998Z,99997.53
2022-08-19T15:06:30.075Z,99995.84
2022-08-19T15:09:03.343Z,99992.09
2022-08-19T15:11:33.503Z,99978.25
2022-08-19T15:14:03.656Z,99983.59
2022-08-19T15:16:31.807Z,99973.38
2022-08-19T15:19:01.189Z,99977.75
2022-08-19T15:21:31.640Z,99975.28
2022-08-19T15:24:01.556Z,99983.25
2022-08-19T15:26:33.343Z,99974.81
2022-08-19T15:29:04.064Z,99974.91
2022-08-19T15:31:35.226Z,99980.75
2022-08-19T15:34:07.768Z,99986.59
2022-08-19T15:36:36.689Z,99981.84
2022-08-19T15:39:06.415Z,99981.53
2022-08-19T15:41:34.838Z,99988.84
2022-08-19T15:44:10.030Z,99978.78
2022-08-19T15:46:40.519Z,99983.16
2022-08-19T15:49:09.750Z,99976.03
2022-08-19T15:51:40.038Z,99976.38
2022-08-19T15:54:10.762Z,99981.38
2022-08-19T15:57:02.043Z,99974.31
2022-08-19T15:59:48.819Z,99983.25
2022-08-19T16:02:37.020Z,99976.19
2022-08-19T16:05:25.084Z,99984.59
2022-08-19T16:07:53.433Z,99987.28
2022-08-19T16:10:27.000Z,99988.84
2022-08-19T16:12:56.819Z,99981.78
2022-08-19T16:15:27.539Z,99982.88
2022-08-19T16:17:57.365Z,99980.78
2022-08-19T16:20:27.543Z,99983.97
2022-08-19T16:22:56.562Z,99986.72
2022-08-19T16:25:27.697Z,99993.63
2022-08-19T16:28:07.023Z,99997.03
2022-08-19T16:30:39.166Z,99990.66
2022-08-19T16:33:07.996Z,99988.22
2022-08-19T16:35:36.573Z,99993.63
2022-08-19T16:38:06.947Z,99990.66
2022-08-19T16:40:35.744Z,100002.00
2022-08-19T16:43:04.076Z,100002.63
2022-08-19T16:45:32.319Z,100008.13
2022-08-19T16:48:01.954Z,100004.50
2022-08-19T16:50:48.192Z,100009.41
2022-08-19T16:53:19.251Z,100004.81
2022-08-19T16:55:51.367Z,100010.22
2022-08-19T16:58:22.236Z,100011.78
2022-08-19T17:01:00.761Z,100014.03
2022-08-19T17:03:35.960Z,100019.38
2022-08-19T17:06:17.903Z,100012.44
2022-08-19T17:08:50.129Z,100012.31
2022-08-19T17:11:19.704Z,100014.00
2022-08-19T17:13:49.525Z,100014.75
2022-08-19T17:16:18.642Z,100007.72
2022-08-19T17:18:52.398Z,100016.53
2022-08-19T17:21:20.582Z,100017.72
2022-08-19T17:23:48.836Z,100005.47
2022-08-19T17:26:18.821Z,100019.31
2022-08-19T17:28:49.142Z,100022.72
2022-08-19T17:31:17.507Z,100016.22
2022-08-19T17:33:48.290Z,100024.94
2022-08-19T17:36:19.019Z,100020.34
2022-08-19T17:38:47.242Z,100024.56
2022-08-19T17:41:15.446Z,100021.38
2022-08-19T17:43:44.193Z,100023.00
2022-08-19T17:46:17.843Z,100027.31
2022-08-19T17:48:52.259Z,100021.03
2022-08-19T17:51:25.433Z,100027.66
2022-08-19T17:53:55.118Z,100024.19
2022-08-19T17:56:23.632Z,100028.28
2022-08-19T17:58:59.682Z,100033.78
2022-08-19T18:01:52.470Z,100030.53
2022-08-19T18:04:19.940Z,100028.91
2022-08-19T18:06:53.022Z,100042.97
2022-08-19T18:09:24.216Z,100042.94
2022-08-19T18:11:54.248Z,100045.34
2022-08-19T18:14:33.402Z,100042.28
2022-08-19T18:17:06.477Z,100048.91
2022-08-19T18:19:42.123Z,100039.59
2022-08-19T18:22:22.583Z,100041.59
2022-08-19T18:24:51.174Z,100049.88
2022-08-19T18:27:19.368Z,100047.53
2022-08-19T18:29:47.545Z,100047.25
2022-08-19T18:32:21.233Z,100042.56
2022-08-19T18:34:53.490Z,100054.38
2022-08-19T18:37:25.916Z,100053.97
2022-08-19T18:40:11.437Z,100050.47
2022-08-19T18:43:01.127Z,100052.84
2022-08-19T18:45:46.831Z,100056.78
2022-08-19T18:48:32.505Z,100058.00
2022-08-19T18:51:03.081Z,100057.25
2022-08-19T18:53:34.952Z,100050.22
2022-08-19T18:56:03.542Z,100047.91
2022-08-19T18:58:34.651Z,100059.25
2022-08-19T19:01:11.465Z,100049.53
2022-08-19T19:03:43.676Z,100057.78
2022-08-19T19:06:12.325Z,100053.88
2022-08-19T19:08:41.937Z,100048.41
2022-08-19T19:11:10.334Z,100051.97
2022-08-19T19:13:39.937Z,100048.09
2022-08-19T19:16:11.607Z,100057.09
2022-08-19T19:18:40.322Z,100049.66
2022-08-19T19:21:09.481Z,100056.31
2022-08-19T19:23:40.823Z,100060.22
2022-08-19T19:26:11.399Z,100064.13
2022-08-19T19:28:45.289Z,100066.09
2022-08-19T19:31:16.060Z,100070.44
2022-08-19T19:33:45.287Z,100065.34
2022-08-19T19:36:13.883Z,100057.56
2022-08-19T19:38:48.251Z,100059.16
2022-08-19T19:41:23.436Z,100061.13
2022-08-19T19:44:10.069Z,100073.22
2022-08-19T19:46:42.600Z,100055.56
2022-08-19T19:49:11.458Z,100064.56
2022-08-19T19:51:41.203Z,100057.91
2022-08-19T19:54:13.683Z,100066.50
2022-08-19T19:56:45.440Z,100060.25
2022-08-19T19:59:15.859Z,100062.25
2022-08-19T20:01:46.088Z,100063.06
2022-08-19T20:04:16.090Z,100059.91
2022-08-19T20:06:45.704Z,100061.84
2022-08-19T20:09:17.575Z,100066.59
2022-08-19T20:11:53.703Z,100067.75
2022-08-19T20:14:24.890Z,100067.00
2022-08-19T20:16:55.273Z,100072.50
2022-08-19T20:19:27.320Z,100068.56
2022-08-19T20:21:57.525Z,100065.88
2022-08-19T20:24:29.053Z,100072.91
2022-08-19T20:26:58.734Z,100065.91
2022-08-19T20:29:39.300Z,100066.25
2022-08-19T20:32:11.327Z,100065.06
2022-08-19T20:34:40.164Z,100055.66
2022-08-19T20:37:09.663Z,100057.22
2022-08-19T20:39:38.643Z,100057.63
2022-08-19T20:42:09.397Z,100060.00
2022-08-19T20:44:37.939Z,100055.72
2022-08-19T20:47:06.457Z,100063.13
2022-08-19T20:49:35.310Z,100048.25
2022-08-19T20:52:05.025Z,100056.47
2022-08-19T20:54:33.564Z,100064.31
2022-08-19T20:57:03.819Z,100055.66
2022-08-19T20:59:33.657Z,100054.09
2022-08-19T21:02:01.919Z,100051.72
2022-08-19T21:04:30.187Z,100058.34
2022-08-19T21:06:58.347Z,100042.63
2022-08-19T21:09:26.651Z,100050.03
2022-08-19T21:11:55.326Z,100039.91
2022-08-19T21:14:23.995Z,100041.88
2022-08-19T21:16:54.122Z,100035.19
2022-08-19T21:19:24.050Z,100034.06
2022-08-19T21:21:53.558Z,100037.63
2022-08-19T21:24:21.933Z,100031.44
2022-08-19T21:26:58.355Z,100033.34
2022-08-19T21:29:26.556Z,100024.66
2022-08-19T21:31:56.180Z,100018.81
2022-08-19T21:34:24.431Z,100013.75
2022-08-19T21:36:52.897Z,100009.78
2022-08-19T21:39:21.155Z,100011.78
2022-08-19T21:41:49.373Z,100008.63
2022-08-19T21:44:17.692Z,100004.38
2022-08-19T21:46:45.833Z,100000.88
2022-08-19T21:49:20.486Z,100003.28
2022-08-19T21:51:48.756Z,100007.63
2022-08-19T21:54:17.149Z,100006.47
2022-08-19T21:56:45.598Z,100009.53
2022-08-19T21:59:13.995Z,100007.63
2022-08-19T22:01:47.489Z,99998.16
2022-08-19T22:04:19.085Z,100005.53
2022-08-19T22:06:47.288Z,100002.34
2022-08-19T22:09:15.528Z,100000.66
2022-08-19T22:11:44.481Z,100008.44
2022-08-19T22:14:12.670Z,100004.16
2022-08-19T22:16:40.938Z,100006.38
2022-08-19T22:19:10.065Z,100004.44
2022-08-19T22:21:41.087Z,100009.16
2022-08-19T22:24:10.276Z,100005.31
2022-08-19T22:26:38.513Z,100006.03
2022-08-19T22:29:08.330Z,100004.06
2022-08-19T22:31:37.675Z,100001.28
2022-08-19T22:34:06.520Z,100003.66
2022-08-19T22:36:35.570Z,100002.16
2022-08-19T22:39:06.116Z,100006.03
2022-08-19T22:41:34.692Z,100002.47
2022-08-19T22:44:03.919Z,100000.53
2022-08-19T22:46:33.742Z,99999.41
2022-08-19T22:49:02.713Z,100001.47
2022-08-19T22:51:48.364Z,99999.56
2022-08-19T22:54:18.358Z,100002.69
2022-08-19T22:56:46.929Z,99997.22
2022-08-19T22:59:16.316Z,100002.69
2022-08-19T23:01:46.406Z,100009.44
2022-08-19T23:04:14.843Z,100000.88
2022-08-19T23:06:43.108Z,100005.59
2022-08-19T23:09:16.989Z,99991.91
2022-08-19T23:11:47.105Z,99996.16
2022-08-19T23:14:17.698Z,99989.53
2022-08-19T23:16:50.716Z,99986.75
2022-08-19T23:19:20.647Z,99986.03
2022-08-19T23:21:49.642Z,99997.09
2022-08-19T23:24:18.414Z,99996.34
2022-08-19T23:27:05.570Z,99985.03
2022-08-19T23:29:51.594Z,99987.72
2022-08-19T23:32:23.669Z,99990.09
2022-08-19T23:34:51.818Z,99989.34
2022-08-19T23:37:20.077Z,99987.78
2022-08-19T23:39:49.885Z,99990.06
2022-08-19T23:42:20.662Z,99988.63
2022-08-19T23:44:51.645Z,100000.38
2022-08-19T23:47:21.976Z,100000.41
2022-08-19T23:49:50.736Z,99996.88
2022-08-19T23:52:19.120Z,99997.28
2022-08-19T23:54:47.351Z,100003.94
2022-08-19T23:57:15.538Z,100001.63
2022-08-19T23:59:46.331Z,100000.81
